sensor_id;sensor_type;location;lat;lon;timestamp;P1;durP1;ratioP1;P2;durP2;ratioP2
23539;SDS011;11947;50.810;4.394;2022-11-15T00:27:06;57.55;;;28.98;;
23539;SDS011;11947;50.810;4.394;2022-11-15T00:29:34;51.70;;;28.25;;
23539;SDS011;11947;50.810;4.394;2022-11-15T00:32:13;50.97;;;28.48;;
23539;SDS011;11947;50.810;4.394;2022-11-15T00:34:39;49.33;;;28.42;;
23539;SDS011;11947;50.810;4.394;2022-11-15T00:37:05;51.33;;;28.73;;
23539;SDS011;11947;50.810;4.394;2022-11-15T00:39:31;57.00;;;28.35;;
23539;SDS011;11947;50.810;4.394;2022-11-15T00:41:57;53.10;;;28.70;;
23539;SDS011;11947;50.810;4.394;2022-11-15T00:44:22;54.70;;;28.27;;
23539;SDS011;11947;50.810;4.394;2022-11-15T00:46:48;49.75;;;28.88;;
23539;SDS011;11947;50.810;4.394;2022-11-15T00:49:14;54.60;;;30.00;;
23539;SDS011;11947;50.810;4.394;2022-11-15T00:51:39;54.92;;;31.10;;
23539;SDS011;11947;50.810;4.394;2022-11-15T00:54:05;55.33;;;30.92;;
23539;SDS011;11947;50.810;4.394;2022-11-15T00:56:31;67.60;;;31.73;;
23539;SDS011;11947;50.810;4.394;2022-11-15T00:58:56;61.30;;;32.08;;
23539;SDS011;11947;50.810;4.394;2022-11-15T01:01:22;63.00;;;31.77;;
23539;SDS011;11947;50.810;4.394;2022-11-15T01:03:48;64.65;;;32.50;;
23539;SDS011;11947;50.810;4.394;2022-11-15T01:19:10;61.78;;;33.00;;
23539;SDS011;11947;50.810;4.394;2022-11-15T01:21:36;63.08;;;32.45;;
23539;SDS011;11947;50.810;4.394;2022-11-15T01:24:02;64.05;;;32.85;;
23539;SDS011;11947;50.810;4.394;2022-11-15T01:26:27;61.30;;;31.80;;
23539;SDS011;11947;50.810;4.394;2022-11-15T01:28:53;61.03;;;30.75;;
23539;SDS011;11947;50.810;4.394;2022-11-15T01:31:19;61.42;;;30.42;;
23539;SDS011;11947;50.810;4.394;2022-11-15T01:33:46;52.88;;;29.25;;
23539;SDS011;11947;50.810;4.394;2022-11-15T01:36:13;50.20;;;27.08;;
23539;SDS011;11947;50.810;4.394;2022-11-15T01:38:41;50.67;;;27.17;;
23539;SDS011;11947;50.810;4.394;2022-11-15T01:41:13;53.65;;;26.73;;
23539;SDS011;11947;50.810;4.394;2022-11-15T01:43:42;51.92;;;26.60;;
23539;SDS011;11947;50.810;4.394;2022-11-15T01:49:01;45.33;;;24.90;;
23539;SDS011;11947;50.810;4.394;2022-11-15T01:51:33;41.70;;;24.10;;
23539;SDS011;11947;50.810;4.394;2022-11-15T01:54:00;41.40;;;24.17;;
23539;SDS011;11947;50.810;4.394;2022-11-15T01:56:31;42.83;;;22.85;;
23539;SDS011;11947;50.810;4.394;2022-11-15T01:59:01;42.17;;;22.50;;
23539;SDS011;11947;50.810;4.394;2022-11-15T02:01:30;39.67;;;22.38;;
23539;SDS011;11947;50.810;4.394;2022-11-15T02:04:09;39.75;;;21.40;;
23539;SDS011;11947;50.810;4.394;2022-11-15T02:06:38;41.25;;;20.40;;
23539;SDS011;11947;50.810;4.394;2022-11-15T02:09:05;40.72;;;21.55;;
23539;SDS011;11947;50.810;4.394;2022-11-15T02:11:31;38.97;;;21.27;;
23539;SDS011;11947;50.810;4.394;2022-11-15T02:13:57;35.63;;;20.45;;
23539;SDS011;11947;50.810;4.394;2022-11-15T02:27:38;32.80;;;19.17;;
23539;SDS011;11947;50.810;4.394;2022-11-15T02:36:03;39.22;;;20.95;;
23539;SDS011;11947;50.810;4.394;2022-11-15T02:41:34;41.83;;;20.25;;
23539;SDS011;11947;50.810;4.394;2022-11-15T02:44:19;33.53;;;19.38;;
23539;SDS011;11947;50.810;4.394;2022-11-15T02:46:54;37.67;;;19.15;;
23539;SDS011;11947;50.810;4.394;2022-11-15T02:49:51;38.10;;;19.30;;
23539;SDS011;11947;50.810;4.394;2022-11-15T02:52:23;32.58;;;18.88;;
23539;SDS011;11947;50.810;4.394;2022-11-15T02:54:59;34.03;;;17.48;;
23539;SDS011;11947;50.810;4.394;2022-11-15T03:00:14;35.25;;;17.65;;
23539;SDS011;11947;50.810;4.394;2022-11-15T03:11:18;28.63;;;15.30;;
23539;SDS011;11947;50.810;4.394;2022-11-15T03:16:38;29.73;;;15.73;;
23539;SDS011;11947;50.810;4.394;2022-11-15T03:19:15;27.65;;;14.65;;
23539;SDS011;11947;50.810;4.394;2022-11-15T03:21:49;26.80;;;14.32;;
23539;SDS011;11947;50.810;4.394;2022-11-15T03:24:17;34.47;;;14.20;;
23539;SDS011;11947;50.810;4.394;2022-11-15T03:26:45;24.50;;;13.70;;
23539;SDS011;11947;50.810;4.394;2022-11-15T03:29:16;25.38;;;12.70;;
23539;SDS011;11947;50.810;4.394;2022-11-15T03:31:49;27.27;;;11.82;;
23539;SDS011;11947;50.810;4.394;2022-11-15T03:34:22;25.55;;;12.02;;
23539;SDS011;11947;50.810;4.394;2022-11-15T03:36:56;23.95;;;12.18;;
23539;SDS011;11947;50.810;4.394;2022-11-15T03:39:22;23.90;;;11.18;;
23539;SDS011;11947;50.810;4.394;2022-11-15T03:42:24;20.38;;;11.43;;
23539;SDS011;11947;50.810;4.394;2022-11-15T03:50:23;18.70;;;10.40;;
23539;SDS011;11947;50.810;4.394;2022-11-15T03:52:49;21.25;;;10.20;;
23539;SDS011;11947;50.810;4.394;2022-11-15T03:55:18;20.83;;;9.38;;
23539;SDS011;11947;50.810;4.394;2022-11-15T03:57:47;17.52;;;9.35;;
23539;SDS011;11947;50.810;4.394;2022-11-15T04:00:15;20.67;;;9.35;;
23539;SDS011;11947;50.810;4.394;2022-11-15T04:02:41;18.63;;;9.98;;
23539;SDS011;11947;50.810;4.394;2022-11-15T04:05:07;21.40;;;9.73;;
23539;SDS011;11947;50.810;4.394;2022-11-15T04:07:33;20.05;;;9.38;;
23539;SDS011;11947;50.810;4.394;2022-11-15T04:09:58;21.65;;;9.90;;
23539;SDS011;11947;50.810;4.394;2022-11-15T04:12:27;14.57;;;9.88;;
23539;SDS011;11947;50.810;4.394;2022-11-15T04:15:10;18.13;;;9.63;;
23539;SDS011;11947;50.810;4.394;2022-11-15T04:20:17;20.13;;;10.02;;
23539;SDS011;11947;50.810;4.394;2022-11-15T04:23:03;21.15;;;10.50;;
23539;SDS011;11947;50.810;4.394;2022-11-15T04:25:51;19.45;;;10.40;;
23539;SDS011;11947;50.810;4.394;2022-11-15T04:28:18;23.98;;;10.73;;
23539;SDS011;11947;50.810;4.394;2022-11-15T04:30:44;19.35;;;10.13;;
23539;SDS011;11947;50.810;4.394;2022-11-15T04:33:10;19.25;;;10.50;;
23539;SDS011;11947;50.810;4.394;2022-11-15T04:35:36;22.80;;;10.38;;
23539;SDS011;11947;50.810;4.394;2022-11-15T04:38:02;21.20;;;10.57;;
23539;SDS011;11947;50.810;4.394;2022-11-15T04:40:29;22.92;;;10.63;;
23539;SDS011;11947;50.810;4.394;2022-11-15T04:42:54;17.15;;;8.93;;
23539;SDS011;11947;50.810;4.394;2022-11-15T04:45:20;18.88;;;9.90;;
23539;SDS011;11947;50.810;4.394;2022-11-15T04:47:46;15.70;;;9.25;;
23539;SDS011;11947;50.810;4.394;2022-11-15T04:50:13;18.13;;;9.05;;
23539;SDS011;11947;50.810;4.394;2022-11-15T04:52:40;17.75;;;8.98;;
23539;SDS011;11947;50.810;4.394;2022-11-15T04:55:07;19.30;;;9.20;;
23539;SDS011;11947;50.810;4.394;2022-11-15T04:57:34;22.80;;;9.52;;
23539;SDS011;11947;50.810;4.394;2022-11-15T05:00:00;18.50;;;8.48;;
23539;SDS011;11947;50.810;4.394;2022-11-15T05:02:26;21.98;;;8.98;;
23539;SDS011;11947;50.810;4.394;2022-11-15T05:05:11;18.92;;;8.23;;
23539;SDS011;11947;50.810;4.394;2022-11-15T05:07:37;18.95;;;8.40;;
23539;SDS011;11947;50.810;4.394;2022-11-15T05:10:03;18.02;;;8.50;;
23539;SDS011;11947;50.810;4.394;2022-11-15T05:12:28;16.38;;;8.07;;
23539;SDS011;11947;50.810;4.394;2022-11-15T05:14:54;15.13;;;7.90;;
23539;SDS011;11947;50.810;4.394;2022-11-15T05:17:20;14.93;;;7.40;;
23539;SDS011;11947;50.810;4.394;2022-11-15T05:19:45;15.13;;;7.13;;
23539;SDS011;11947;50.810;4.394;2022-11-15T05:22:11;12.80;;;6.78;;
23539;SDS011;11947;50.810;4.394;2022-11-15T05:24:37;16.92;;;6.45;;
23539;SDS011;11947;50.810;4.394;2022-11-15T05:27:02;17.55;;;6.28;;
23539;SDS011;11947;50.810;4.394;2022-11-15T05:29:28;14.88;;;6.75;;
23539;SDS011;11947;50.810;4.394;2022-11-15T05:31:53;16.13;;;6.20;;
23539;SDS011;11947;50.810;4.394;2022-11-15T05:34:19;14.80;;;6.50;;
23539;SDS011;11947;50.810;4.394;2022-11-15T05:36:47;20.73;;;6.28;;
23539;SDS011;11947;50.810;4.394;2022-11-15T05:39:13;20.58;;;6.90;;
23539;SDS011;11947;50.810;4.394;2022-11-15T05:41:50;13.88;;;6.40;;
23539;SDS011;11947;50.810;4.394;2022-11-15T05:44:23;21.55;;;6.72;;
23539;SDS011;11947;50.810;4.394;2022-11-15T05:46:51;19.08;;;6.88;;
23539;SDS011;11947;50.810;4.394;2022-11-15T05:49:20;19.65;;;7.10;;
23539;SDS011;11947;50.810;4.394;2022-11-15T05:51:49;16.92;;;6.93;;
23539;SDS011;11947;50.810;4.394;2022-11-15T05:54:16;25.10;;;7.50;;
23539;SDS011;11947;50.810;4.394;2022-11-15T05:56:42;19.45;;;6.75;;
23539;SDS011;11947;50.810;4.394;2022-11-15T05:59:09;16.85;;;7.00;;
23539;SDS011;11947;50.810;4.394;2022-11-15T06:01:35;16.40;;;7.10;;
23539;SDS011;11947;50.810;4.394;2022-11-15T06:04:01;19.75;;;7.22;;
23539;SDS011;11947;50.810;4.394;2022-11-15T06:06:27;20.38;;;7.20;;
23539;SDS011;11947;50.810;4.394;2022-11-15T06:08:54;16.05;;;7.15;;
23539;SDS011;11947;50.810;4.394;2022-11-15T06:11:19;16.35;;;6.38;;
23539;SDS011;11947;50.810;4.394;2022-11-15T06:13:45;14.07;;;7.07;;
23539;SDS011;11947;50.810;4.394;2022-11-15T06:16:11;16.10;;;6.30;;
23539;SDS011;11947;50.810;4.394;2022-11-15T06:18:36;18.10;;;7.03;;
23539;SDS011;11947;50.810;4.394;2022-11-15T06:21:02;18.98;;;6.45;;
23539;SDS011;11947;50.810;4.394;2022-11-15T06:23:31;15.25;;;6.57;;
23539;SDS011;11947;50.810;4.394;2022-11-15T06:25:58;18.17;;;7.03;;
23539;SDS011;11947;50.810;4.394;2022-11-15T06:28:24;20.05;;;7.38;;
23539;SDS011;11947;50.810;4.394;2022-11-15T06:30:52;15.32;;;7.10;;
23539;SDS011;11947;50.810;4.394;2022-11-15T06:33:18;18.55;;;7.25;;
23539;SDS011;11947;50.810;4.394;2022-11-15T06:35:44;21.10;;;6.88;;
23539;SDS011;11947;50.810;4.394;2022-11-15T06:38:09;24.85;;;7.72;;
23539;SDS011;11947;50.810;4.394;2022-11-15T06:40:36;15.95;;;7.30;;
23539;SDS011;11947;50.810;4.394;2022-11-15T06:43:05;16.98;;;7.10;;
23539;SDS011;11947;50.810;4.394;2022-11-15T06:45:31;17.40;;;6.50;;
23539;SDS011;11947;50.810;4.394;2022-11-15T06:47:57;13.77;;;6.55;;
23539;SDS011;11947;50.810;4.394;2022-11-15T06:50:23;19.13;;;6.55;;
23539;SDS011;11947;50.810;4.394;2022-11-15T06:52:48;21.80;;;6.53;;
23539;SDS011;11947;50.810;4.394;2022-11-15T06:55:14;15.10;;;6.07;;
23539;SDS011;11947;50.810;4.394;2022-11-15T06:57:47;13.52;;;5.75;;
23539;SDS011;11947;50.810;4.394;2022-11-15T07:00:17;19.27;;;6.68;;
23539;SDS011;11947;50.810;4.394;2022-11-15T07:02:44;15.82;;;6.85;;
23539;SDS011;11947;50.810;4.394;2022-11-15T07:05:11;14.52;;;6.47;;
23539;SDS011;11947;50.810;4.394;2022-11-15T07:07:37;13.80;;;6.32;;
23539;SDS011;11947;50.810;4.394;2022-11-15T07:10:03;17.10;;;7.05;;
23539;SDS011;11947;50.810;4.394;2022-11-15T07:12:29;15.85;;;6.75;;
23539;SDS011;11947;50.810;4.394;2022-11-15T07:14:54;19.67;;;6.65;;
23539;SDS011;11947;50.810;4.394;2022-11-15T07:17:21;18.23;;;7.18;;
23539;SDS011;11947;50.810;4.394;2022-11-15T07:19:47;15.18;;;7.18;;
23539;SDS011;11947;50.810;4.394;2022-11-15T07:22:12;13.48;;;6.57;;
23539;SDS011;11947;50.810;4.394;2022-11-15T07:24:38;21.08;;;7.28;;
23539;SDS011;11947;50.810;4.394;2022-11-15T07:27:04;19.10;;;7.35;;
23539;SDS011;11947;50.810;4.394;2022-11-15T07:29:29;13.50;;;6.53;;
23539;SDS011;11947;50.810;4.394;2022-11-15T07:31:55;16.42;;;7.32;;
23539;SDS011;11947;50.810;4.394;2022-11-15T07:34:20;15.18;;;7.15;;
23539;SDS011;11947;50.810;4.394;2022-11-15T07:36:48;15.25;;;7.20;;
23539;SDS011;11947;50.810;4.394;2022-11-15T07:39:14;14.27;;;6.82;;
23539;SDS011;11947;50.810;4.394;2022-11-15T07:41:39;16.52;;;6.72;;
23539;SDS011;11947;50.810;4.394;2022-11-15T07:44:05;15.75;;;6.85;;
23539;SDS011;11947;50.810;4.394;2022-11-15T07:46:31;22.38;;;7.88;;
23539;SDS011;11947;50.810;4.394;2022-11-15T07:48:56;21.50;;;8.38;;
23539;SDS011;11947;50.810;4.394;2022-11-15T07:51:22;14.93;;;6.97;;
23539;SDS011;11947;50.810;4.394;2022-11-15T07:53:48;21.48;;;7.32;;
23539;SDS011;11947;50.810;4.394;2022-11-15T07:56:13;15.30;;;6.32;;
23539;SDS011;11947;50.810;4.394;2022-11-15T07:58:57;15.27;;;7.05;;
23539;SDS011;11947;50.810;4.394;2022-11-15T08:01:24;15.07;;;6.60;;
23539;SDS011;11947;50.810;4.394;2022-11-15T08:03:49;12.27;;;6.63;;
23539;SDS011;11947;50.810;4.394;2022-11-15T08:06:15;12.20;;;6.25;;
23539;SDS011;11947;50.810;4.394;2022-11-15T08:08:46;9.80;;;5.35;;
23539;SDS011;11947;50.810;4.394;2022-11-15T08:11:12;18.45;;;6.45;;
23539;SDS011;11947;50.810;4.394;2022-11-15T08:13:37;13.65;;;5.60;;
23539;SDS011;11947;50.810;4.394;2022-11-15T08:16:03;9.55;;;5.30;;
23539;SDS011;11947;50.810;4.394;2022-11-15T08:18:30;14.23;;;5.13;;
23539;SDS011;11947;50.810;4.394;2022-11-15T08:20:59;14.32;;;4.55;;
23539;SDS011;11947;50.810;4.394;2022-11-15T08:23:28;11.85;;;4.20;;
23539;SDS011;11947;50.810;4.394;2022-11-15T08:25:58;8.52;;;4.22;;
23539;SDS011;11947;50.810;4.394;2022-11-15T08:28:28;12.43;;;4.43;;
23539;SDS011;11947;50.810;4.394;2022-11-15T08:30:54;9.10;;;3.55;;
23539;SDS011;11947;50.810;4.394;2022-11-15T08:33:20;10.65;;;3.50;;
23539;SDS011;11947;50.810;4.394;2022-11-15T08:35:49;9.00;;;3.67;;
23539;SDS011;11947;50.810;4.394;2022-11-15T08:38:15;10.57;;;3.80;;
23539;SDS011;11947;50.810;4.394;2022-11-15T08:40:40;13.75;;;3.33;;
23539;SDS011;11947;50.810;4.394;2022-11-15T08:43:06;10.73;;;3.85;;
23539;SDS011;11947;50.810;4.394;2022-11-15T08:45:33;11.85;;;3.40;;
23539;SDS011;11947;50.810;4.394;2022-11-15T08:48:00;8.80;;;3.30;;
23539;SDS011;11947;50.810;4.394;2022-11-15T08:50:27;9.13;;;3.55;;
23539;SDS011;11947;50.810;4.394;2022-11-15T08:52:52;8.02;;;3.40;;
23539;SDS011;11947;50.810;4.394;2022-11-15T08:55:18;7.50;;;2.72;;
23539;SDS011;11947;50.810;4.394;2022-11-15T08:57:44;10.23;;;3.22;;
23539;SDS011;11947;50.810;4.394;2022-11-15T09:00:10;15.45;;;2.92;;
23539;SDS011;11947;50.810;4.394;2022-11-15T09:02:37;12.40;;;3.00;;
23539;SDS011;11947;50.810;4.394;2022-11-15T09:05:07;12.38;;;2.97;;
23539;SDS011;11947;50.810;4.394;2022-11-15T09:07:33;7.40;;;2.30;;
23539;SDS011;11947;50.810;4.394;2022-11-15T09:09:58;12.38;;;3.00;;
23539;SDS011;11947;50.810;4.394;2022-11-15T09:12:24;10.60;;;2.70;;
23539;SDS011;11947;50.810;4.394;2022-11-15T09:14:50;9.88;;;3.00;;
23539;SDS011;11947;50.810;4.394;2022-11-15T09:17:16;9.18;;;2.45;;
23539;SDS011;11947;50.810;4.394;2022-11-15T09:19:41;9.30;;;2.83;;
23539;SDS011;11947;50.810;4.394;2022-11-15T09:22:07;11.25;;;2.92;;
23539;SDS011;11947;50.810;4.394;2022-11-15T09:24:34;12.43;;;2.60;;
23539;SDS011;11947;50.810;4.394;2022-11-15T09:27:02;9.60;;;2.30;;
23539;SDS011;11947;50.810;4.394;2022-11-15T09:29:28;8.13;;;2.08;;
23539;SDS011;11947;50.810;4.394;2022-11-15T09:31:54;14.32;;;2.90;;
23539;SDS011;11947;50.810;4.394;2022-11-15T09:34:19;11.27;;;2.22;;
23539;SDS011;11947;50.810;4.394;2022-11-15T09:36:46;9.52;;;2.47;;
23539;SDS011;11947;50.810;4.394;2022-11-15T09:39:14;12.52;;;2.53;;
23539;SDS011;11947;50.810;4.394;2022-11-15T09:44:55;17.40;;;2.80;;
23539;SDS011;11947;50.810;4.394;2022-11-15T09:53:09;9.07;;;2.05;;
23539;SDS011;11947;50.810;4.394;2022-11-15T09:55:45;9.63;;;2.13;;
23539;SDS011;11947;50.810;4.394;2022-11-15T10:01:25;12.85;;;1.88;;
23539;SDS011;11947;50.810;4.394;2022-11-15T10:04:14;10.80;;;1.90;;
23539;SDS011;11947;50.810;4.394;2022-11-15T10:06:42;12.25;;;2.10;;
23539;SDS011;11947;50.810;4.394;2022-11-15T10:09:25;9.35;;;1.60;;
23539;SDS011;11947;50.810;4.394;2022-11-15T10:12:08;9.90;;;1.90;;
23539;SDS011;11947;50.810;4.394;2022-11-15T10:14:37;9.13;;;2.20;;
23539;SDS011;11947;50.810;4.394;2022-11-15T10:23:01;8.73;;;2.03;;
23539;SDS011;11947;50.810;4.394;2022-11-15T10:25:35;13.88;;;2.25;;
23539;SDS011;11947;50.810;4.394;2022-11-15T10:30:51;8.82;;;1.48;;
23539;SDS011;11947;50.810;4.394;2022-11-15T10:33:26;16.65;;;2.35;;
23539;SDS011;11947;50.810;4.394;2022-11-15T10:43:43;10.82;;;1.65;;
23539;SDS011;11947;50.810;4.394;2022-11-15T10:46:19;4.88;;;1.50;;
23539;SDS011;11947;50.810;4.394;2022-11-15T10:48:47;5.93;;;1.10;;
23539;SDS011;11947;50.810;4.394;2022-11-15T10:51:28;5.93;;;1.63;;
23539;SDS011;11947;50.810;4.394;2022-11-15T10:53:56;16.57;;;1.70;;
23539;SDS011;11947;50.810;4.394;2022-11-15T10:56:24;9.18;;;1.38;;
23539;SDS011;11947;50.810;4.394;2022-11-15T10:58:55;7.32;;;1.40;;
23539;SDS011;11947;50.810;4.394;2022-11-15T11:01:23;10.50;;;1.67;;
23539;SDS011;11947;50.810;4.394;2022-11-15T11:04:04;7.55;;;1.45;;
23539;SDS011;11947;50.810;4.394;2022-11-15T11:06:54;9.48;;;1.60;;
23539;SDS011;11947;50.810;4.394;2022-11-15T11:09:39;7.82;;;2.08;;
23539;SDS011;11947;50.810;4.394;2022-11-15T11:12:10;8.07;;;1.52;;
23539;SDS011;11947;50.810;4.394;2022-11-15T11:14:37;11.05;;;1.77;;
23539;SDS011;11947;50.810;4.394;2022-11-15T11:17:21;10.85;;;2.35;;
23539;SDS011;11947;50.810;4.394;2022-11-15T11:19:52;22.92;;;8.27;;
23539;SDS011;11947;50.810;4.394;2022-11-15T11:23:21;14.93;;;4.72;;
23539;SDS011;11947;50.810;4.394;2022-11-15T11:32:17;8.63;;;1.73;;
23539;SDS011;11947;50.810;4.394;2022-11-15T11:35:08;4.72;;;1.50;;
23539;SDS011;11947;50.810;4.394;2022-11-15T11:48:20;10.13;;;1.70;;
23539;SDS011;11947;50.810;4.394;2022-11-15T11:51:10;10.15;;;1.20;;
23539;SDS011;11947;50.810;4.394;2022-11-15T11:53:43;6.20;;;1.50;;
23539;SDS011;11947;50.810;4.394;2022-11-15T11:56:19;10.23;;;1.38;;
23539;SDS011;11947;50.810;4.394;2022-11-15T11:58:53;6.05;;;1.30;;
23539;SDS011;11947;50.810;4.394;2022-11-15T12:01:30;6.50;;;1.50;;
23539;SDS011;11947;50.810;4.394;2022-11-15T12:04:10;9.75;;;1.30;;
23539;SDS011;11947;50.810;4.394;2022-11-15T12:06:56;5.32;;;1.30;;
23539;SDS011;11947;50.810;4.394;2022-11-15T12:09:30;8.70;;;1.35;;
23539;SDS011;11947;50.810;4.394;2022-11-15T12:17:49;6.28;;;1.27;;
23539;SDS011;11947;50.810;4.394;2022-11-15T12:20:22;4.00;;;1.10;;
23539;SDS011;11947;50.810;4.394;2022-11-15T12:25:34;6.88;;;1.70;;
23539;SDS011;11947;50.810;4.394;2022-11-15T12:28:28;12.70;;;1.67;;
23539;SDS011;11947;50.810;4.394;2022-11-15T12:34:12;6.70;;;1.40;;
23539;SDS011;11947;50.810;4.394;2022-11-15T12:36:54;5.43;;;1.40;;
23539;SDS011;11947;50.810;4.394;2022-11-15T12:39:20;6.35;;;1.08;;
23539;SDS011;11947;50.810;4.394;2022-11-15T12:47:13;7.00;;;1.30;;
23539;SDS011;11947;50.810;4.394;2022-11-15T12:49:48;5.28;;;1.30;;
23539;SDS011;11947;50.810;4.394;2022-11-15T12:52:15;4.22;;;1.30;;
23539;SDS011;11947;50.810;4.394;2022-11-15T13:12:58;4.00;;;1.50;;
23539;SDS011;11947;50.810;4.394;2022-11-15T13:18:26;5.95;;;1.30;;
23539;SDS011;11947;50.810;4.394;2022-11-15T13:20:51;7.63;;;1.48;;
23539;SDS011;11947;50.810;4.394;2022-11-15T13:23:17;5.38;;;1.70;;
23539;SDS011;11947;50.810;4.394;2022-11-15T13:34:00;5.53;;;1.55;;
23539;SDS011;11947;50.810;4.394;2022-11-15T13:36:32;6.68;;;1.67;;
23539;SDS011;11947;50.810;4.394;2022-11-15T13:39:02;5.18;;;1.30;;
23539;SDS011;11947;50.810;4.394;2022-11-15T13:41:47;6.20;;;1.40;;
23539;SDS011;11947;50.810;4.394;2022-11-15T13:44:24;6.40;;;1.50;;
23539;SDS011;11947;50.810;4.394;2022-11-15T13:47:13;2.85;;;1.30;;
23539;SDS011;11947;50.810;4.394;2022-11-15T13:49:40;6.68;;;1.80;;
23539;SDS011;11947;50.810;4.394;2022-11-15T13:52:07;5.72;;;1.80;;
23539;SDS011;11947;50.810;4.394;2022-11-15T13:54:35;4.30;;;1.40;;
23539;SDS011;11947;50.810;4.394;2022-11-15T13:57:19;3.22;;;1.17;;
23539;SDS011;11947;50.810;4.394;2022-11-15T13:59:47;6.53;;;1.85;;
23539;SDS011;11947;50.810;4.394;2022-11-15T14:02:18;2.92;;;1.50;;
23539;SDS011;11947;50.810;4.394;2022-11-15T14:04:59;3.63;;;1.40;;
23539;SDS011;11947;50.810;4.394;2022-11-15T14:07:30;8.00;;;2.13;;
23539;SDS011;11947;50.810;4.394;2022-11-15T14:09:57;4.70;;;1.55;;
23539;SDS011;11947;50.810;4.394;2022-11-15T14:12:25;4.10;;;1.58;;
23539;SDS011;11947;50.810;4.394;2022-11-15T14:14:52;4.20;;;1.40;;
23539;SDS011;11947;50.810;4.394;2022-11-15T14:17:20;4.78;;;1.70;;
23539;SDS011;11947;50.810;4.394;2022-11-15T14:19:54;2.63;;;1.50;;
23539;SDS011;11947;50.810;4.394;2022-11-15T14:22:22;5.38;;;1.77;;
23539;SDS011;11947;50.810;4.394;2022-11-15T14:25:25;6.70;;;1.80;;
23539;SDS011;11947;50.810;4.394;2022-11-15T14:30:47;4.70;;;1.75;;
23539;SDS011;11947;50.810;4.394;2022-11-15T14:33:19;3.78;;;1.70;;
23539;SDS011;11947;50.810;4.394;2022-11-15T14:35:52;7.25;;;2.00;;
23539;SDS011;11947;50.810;4.394;2022-11-15T14:40:54;4.40;;;1.30;;
23539;SDS011;11947;50.810;4.394;2022-11-15T14:43:20;4.18;;;1.92;;
23539;SDS011;11947;50.810;4.394;2022-11-15T14:45:46;4.13;;;2.08;;
23539;SDS011;11947;50.810;4.394;2022-11-15T14:48:12;3.85;;;1.65;;
23539;SDS011;11947;50.810;4.394;2022-11-15T14:50:38;2.80;;;1.50;;
23539;SDS011;11947;50.810;4.394;2022-11-15T14:53:04;4.90;;;1.90;;
23539;SDS011;11947;50.810;4.394;2022-11-15T14:55:31;5.28;;;2.20;;
23539;SDS011;11947;50.810;4.394;2022-11-15T14:58:00;5.50;;;1.90;;
23539;SDS011;11947;50.810;4.394;2022-11-15T15:00:36;4.47;;;1.83;;
23539;SDS011;11947;50.810;4.394;2022-11-15T15:05:41;6.03;;;2.30;;
23539;SDS011;11947;50.810;4.394;2022-11-15T15:08:11;5.70;;;2.13;;
23539;SDS011;11947;50.810;4.394;2022-11-15T15:10:38;4.30;;;2.20;;
23539;SDS011;11947;50.810;4.394;2022-11-15T15:13:22;9.85;;;2.47;;
23539;SDS011;11947;50.810;4.394;2022-11-15T15:18:17;5.28;;;2.30;;
23539;SDS011;11947;50.810;4.394;2022-11-15T15:20:44;7.85;;;2.40;;
23539;SDS011;11947;50.810;4.394;2022-11-15T15:23:16;6.25;;;2.53;;
23539;SDS011;11947;50.810;4.394;2022-11-15T15:25:43;5.63;;;2.70;;
23539;SDS011;11947;50.810;4.394;2022-11-15T15:28:11;4.90;;;2.30;;
23539;SDS011;11947;50.810;4.394;2022-11-15T15:30:37;6.22;;;2.42;;
23539;SDS011;11947;50.810;4.394;2022-11-15T15:33:03;6.65;;;2.75;;
23539;SDS011;11947;50.810;4.394;2022-11-15T15:35:29;4.80;;;2.70;;
23539;SDS011;11947;50.810;4.394;2022-11-15T15:38:04;5.40;;;2.95;;
23539;SDS011;11947;50.810;4.394;2022-11-15T15:40:30;7.70;;;3.13;;
23539;SDS011;11947;50.810;4.394;2022-11-15T15:42:58;6.38;;;2.90;;
23539;SDS011;11947;50.810;4.394;2022-11-15T15:45:24;4.95;;;2.60;;
23539;SDS011;11947;50.810;4.394;2022-11-15T15:51:42;9.90;;;3.10;;
23539;SDS011;11947;50.810;4.394;2022-11-15T15:54:08;5.93;;;3.40;;
23539;SDS011;11947;50.810;4.394;2022-11-15T15:59:19;57.83;;;6.50;;
23539;SDS011;11947;50.810;4.394;2022-11-15T16:01:51;9.15;;;3.35;;
23539;SDS011;11947;50.810;4.394;2022-11-15T16:04:16;5.25;;;3.10;;
23539;SDS011;11947;50.810;4.394;2022-11-15T16:06:48;7.40;;;3.65;;
23539;SDS011;11947;50.810;4.394;2022-11-15T16:09:27;9.00;;;3.60;;
23539;SDS011;11947;50.810;4.394;2022-11-15T16:12:17;8.43;;;3.70;;
23539;SDS011;11947;50.810;4.394;2022-11-15T16:14:42;5.93;;;3.50;;
23539;SDS011;11947;50.810;4.394;2022-11-15T16:17:14;7.78;;;3.40;;
23539;SDS011;11947;50.810;4.394;2022-11-15T16:19:45;251.38;;;16.95;;
23539;SDS011;11947;50.810;4.394;2022-11-15T16:24:55;7.32;;;3.92;;
23539;SDS011;11947;50.810;4.394;2022-11-15T16:27:24;6.35;;;3.30;;
23539;SDS011;11947;50.810;4.394;2022-11-15T16:30:00;7.32;;;4.35;;
23539;SDS011;11947;50.810;4.394;2022-11-15T16:32:37;7.93;;;3.92;;
23539;SDS011;11947;50.810;4.394;2022-11-15T16:35:21;8.02;;;3.50;;
23539;SDS011;11947;50.810;4.394;2022-11-15T16:49:33;7.90;;;5.18;;
23539;SDS011;11947;50.810;4.394;2022-11-15T16:54:35;7.00;;;3.80;;
23539;SDS011;11947;50.810;4.394;2022-11-15T17:00:31;8.50;;;4.07;;
23539;SDS011;11947;50.810;4.394;2022-11-15T17:03:09;8.30;;;4.57;;
23539;SDS011;11947;50.810;4.394;2022-11-15T17:05:35;9.43;;;4.00;;
23539;SDS011;11947;50.810;4.394;2022-11-15T17:08:01;8.15;;;4.55;;
23539;SDS011;11947;50.810;4.394;2022-11-15T17:10:38;9.57;;;6.30;;
23539;SDS011;11947;50.810;4.394;2022-11-15T17:21:54;8.05;;;5.00;;
23539;SDS011;11947;50.810;4.394;2022-11-15T17:24:35;11.25;;;5.55;;
23539;SDS011;11947;50.810;4.394;2022-11-15T17:27:19;10.98;;;5.97;;
23539;SDS011;11947;50.810;4.394;2022-11-15T17:29:48;12.32;;;5.70;;
23539;SDS011;11947;50.810;4.394;2022-11-15T17:32:14;9.00;;;5.95;;
23539;SDS011;11947;50.810;4.394;2022-11-15T17:37:59;12.10;;;6.75;;
23539;SDS011;11947;50.810;4.394;2022-11-15T17:40:43;13.80;;;6.82;;
23539;SDS011;11947;50.810;4.394;2022-11-15T17:44:05;9.95;;;5.60;;
23539;SDS011;11947;50.810;4.394;2022-11-15T17:47:20;10.02;;;6.82;;
23539;SDS011;11947;50.810;4.394;2022-11-15T17:52:56;10.45;;;6.03;;
23539;SDS011;11947;50.810;4.394;2022-11-15T17:59:33;10.85;;;5.45;;
23539;SDS011;11947;50.810;4.394;2022-11-15T18:06:10;11.27;;;6.15;;
23539;SDS011;11947;50.810;4.394;2022-11-15T18:09:00;8.52;;;5.53;;
23539;SDS011;11947;50.810;4.394;2022-11-15T18:11:41;9.80;;;6.78;;
23539;SDS011;11947;50.810;4.394;2022-11-15T18:14:26;8.65;;;5.70;;
23539;SDS011;11947;50.810;4.394;2022-11-15T18:17:06;10.05;;;5.90;;
23539;SDS011;11947;50.810;4.394;2022-11-15T18:19:35;10.40;;;6.13;;
23539;SDS011;11947;50.810;4.394;2022-11-15T18:22:15;12.20;;;6.63;;
23539;SDS011;11947;50.810;4.394;2022-11-15T18:24:53;8.95;;;6.25;;
23539;SDS011;11947;50.810;4.394;2022-11-15T18:27:29;11.30;;;6.57;;
23539;SDS011;11947;50.810;4.394;2022-11-15T18:30:11;9.23;;;6.47;;
23539;SDS011;11947;50.810;4.394;2022-11-15T18:32:40;10.63;;;6.57;;
23539;SDS011;11947;50.810;4.394;2022-11-15T18:35:08;11.38;;;6.82;;
23539;SDS011;11947;50.810;4.394;2022-11-15T18:37:37;10.20;;;6.80;;
23539;SDS011;11947;50.810;4.394;2022-11-15T18:40:42;13.13;;;6.60;;
23539;SDS011;11947;50.810;4.394;2022-11-15T18:43:12;13.98;;;6.82;;
23539;SDS011;11947;50.810;4.394;2022-11-15T18:45:47;12.52;;;7.30;;
23539;SDS011;11947;50.810;4.394;2022-11-15T18:58:54;14.40;;;8.57;;
23539;SDS011;11947;50.810;4.394;2022-11-15T19:01:24;13.77;;;8.38;;
23539;SDS011;11947;50.810;4.394;2022-11-15T19:03:56;11.60;;;7.97;;